sensor_id;sensor_type;location;lat;lon;timestamp;pressure;altitude;pressure_sealevel;temperature;humidity
11099;BME280;12223;42.650;23.364;2022-10-16T00:01:17;95281.22;;;8.48;100.00
11099;BME280;12223;42.650;23.364;2022-10-16T00:03:47;95298.69;;;8.56;100.00
11099;BME280;12223;42.650;23.364;2022-10-16T00:06:15;95307.97;;;8.52;100.00
11099;BME280;12223;42.650;23.364;2022-10-16T00:08:42;95314.50;;;8.62;100.00
11099;BME280;12223;42.650;23.364;2022-10-16T00:11:10;95314.03;;;8.45;100.00
11099;BME280;12223;42.650;23.364;2022-10-16T00:13:40;95312.75;;;8.41;100.00
11099;BME280;12223;42.650;23.364;2022-10-16T00:16:08;95308.03;;;8.30;100.00
11099;BME280;12223;42.650;23.364;2022-10-16T00:18:36;95307.19;;;8.30;100.00
11099;BME280;12223;42.650;23.364;2022-10-16T00:21:06;95310.75;;;8.43;100.00
11099;BME280;12223;42.650;23.364;2022-10-16T00:23:33;95317.97;;;8.35;100.00
11099;BME280;12223;42.650;23.364;2022-10-16T00:26:03;95329.13;;;8.37;100.00
11099;BME280;12223;42.650;23.364;2022-10-16T00:28:30;95331.34;;;8.33;100.00
11099;BME280;12223;42.650;23.364;2022-10-16T00:30:57;95336.63;;;8.33;100.00
11099;BME280;12223;42.650;23.364;2022-10-16T00:33:24;95334.72;;;8.27;100.00
11099;BME280;12223;42.650;23.364;2022-10-16T00:35:51;95323.22;;;8.07;100.00
11099;BME280;12223;42.650;23.364;2022-10-16T00:38:20;95327.00;;;8.26;100.00
11099;BME280;12223;42.650;23.364;2022-10-16T00:40:46;95337.78;;;8.31;100.00
11099;BME280;12223;42.650;23.364;2022-10-16T00:43:31;95341.50;;;8.15;100.00
11099;BME280;12223;42.650;23.364;2022-10-16T00:46:03;95338.06;;;7.93;100.00
11099;BME280;12223;42.650;23.364;2022-10-16T00:48:31;95331.75;;;7.88;100.00
11099;BME280;12223;42.650;23.364;2022-10-16T00:50:58;95330.06;;;8.01;100.00
11099;BME280;12223;42.650;23.364;2022-10-16T00:53:27;95334.88;;;7.77;100.00
11099;BME280;12223;42.650;23.364;2022-10-16T00:55:54;95330.31;;;7.64;100.00
11099;BME280;12223;42.650;23.364;2022-10-16T00:58:21;95323.97;;;7.80;100.00
11099;BME280;12223;42.650;23.364;2022-10-16T01:00:48;95319.59;;;7.65;100.00
11099;BME280;12223;42.650;23.364;2022-10-16T01:03:24;95321.22;;;7.45;100.00
11099;BME280;12223;42.650;23.364;2022-10-16T01:05:59;95316.34;;;7.42;100.00
11099;BME280;12223;42.650;23.364;2022-10-16T01:08:40;95306.06;;;7.47;100.00
11099;BME280;12223;42.650;23.364;2022-10-16T01:11:22;95311.97;;;7.49;100.00
11099;BME280;12223;42.650;23.364;2022-10-16T01:13:53;95305.38;;;7.60;100.00
11099;BME280;12223;42.650;23.364;2022-10-16T01:16:27;95316.44;;;7.70;100.00
11099;BME280;12223;42.650;23.364;2022-10-16T01:19:02;95313.09;;;7.61;100.00
11099;BME280;12223;42.650;23.364;2022-10-16T01:21:38;95315.97;;;7.66;100.00
11099;BME280;12223;42.650;23.364;2022-10-16T01:24:12;95320.81;;;7.63;100.00
11099;BME280;12223;42.650;23.364;2022-10-16T01:29:52;95314.38;;;7.30;100.00
11099;BME280;12223;42.650;23.364;2022-10-16T01:32:27;95310.03;;;7.22;100.00
11099;BME280;12223;42.650;23.364;2022-10-16T01:34:59;95311.19;;;7.34;100.00
11099;BME280;12223;42.650;23.364;2022-10-16T01:37:32;95311.09;;;7.42;100.00
11099;BME280;12223;42.650;23.364;2022-10-16T01:40:04;95302.31;;;7.35;100.00
11099;BME280;12223;42.650;23.364;2022-10-16T01:42:35;95299.25;;;7.32;100.00
11099;BME280;12223;42.650;23.364;2022-10-16T01:45:07;95303.38;;;7.41;100.00
11099;BME280;12223;42.650;23.364;2022-10-16T01:47:37;95310.44;;;7.40;100.00
11099;BME280;12223;42.650;23.364;2022-10-16T01:50:05;95302.50;;;7.34;100.00
11099;BME280;12223;42.650;23.364;2022-10-16T01:52:36;95300.50;;;7.36;100.00
11099;BME280;12223;42.650;23.364;2022-10-16T01:55:06;95303.59;;;7.39;100.00
11099;BME280;12223;42.650;23.364;2022-10-16T01:57:36;95299.53;;;7.22;100.00
11099;BME280;12223;42.650;23.364;2022-10-16T02:00:10;95290.97;;;7.35;100.00
11099;BME280;12223;42.650;23.364;2022-10-16T02:02:40;95291.66;;;7.58;100.00
11099;BME280;12223;42.650;23.364;2022-10-16T02:05:12;95293.38;;;7.51;100.00
11099;BME280;12223;42.650;23.364;2022-10-16T02:07:42;95289.34;;;7.34;100.00
11099;BME280;12223;42.650;23.364;2022-10-16T02:10:09;95296.06;;;7.00;100.00
11099;BME280;12223;42.650;23.364;2022-10-16T02:12:41;95305.44;;;6.88;100.00
11099;BME280;12223;42.650;23.364;2022-10-16T02:15:10;95297.00;;;6.93;100.00
11099;BME280;12223;42.650;23.364;2022-10-16T02:17:37;95293.19;;;6.95;100.00
11099;BME280;12223;42.650;23.364;2022-10-16T02:20:05;95305.75;;;7.36;100.00
11099;BME280;12223;42.650;23.364;2022-10-16T02:22:34;95319.88;;;7.35;100.00
11099;BME280;12223;42.650;23.364;2022-10-16T02:25:06;95336.41;;;7.64;100.00
11099;BME280;12223;42.650;23.364;2022-10-16T02:27:38;95351.63;;;7.54;100.00
11099;BME280;12223;42.650;23.364;2022-10-16T02:30:13;95358.19;;;7.44;100.00
11099;BME280;12223;42.650;23.364;2022-10-16T02:32:42;95367.00;;;7.36;100.00
11099;BME280;12223;42.650;23.364;2022-10-16T02:35:11;95368.81;;;7.36;100.00
11099;BME280;12223;42.650;23.364;2022-10-16T02:37:40;95383.03;;;7.41;100.00
11099;BME280;12223;42.650;23.364;2022-10-16T02:40:08;95388.84;;;7.37;100.00
11099;BME280;12223;42.650;23.364;2022-10-16T02:42:37;95385.78;;;7.33;100.00
11099;BME280;12223;42.650;23.364;2022-10-16T02:45:06;95392.31;;;7.22;100.00
11099;BME280;12223;42.650;23.364;2022-10-16T02:47:34;95390.97;;;7.26;100.00
11099;BME280;12223;42.650;23.364;2022-10-16T02:50:01;95386.19;;;7.01;100.00
11099;BME280;12223;42.650;23.364;2022-10-16T02:52:28;95373.97;;;6.93;100.00
11099;BME280;12223;42.650;23.364;2022-10-16T02:54:54;95378.59;;;6.76;100.00
11099;BME280;12223;42.650;23.364;2022-10-16T02:57:21;95370.50;;;6.78;100.00
11099;BME280;12223;42.650;23.364;2022-10-16T02:59:48;95354.84;;;6.84;100.00
11099;BME280;12223;42.650;23.364;2022-10-16T03:02:15;95368.41;;;7.03;100.00
11099;BME280;12223;42.650;23.364;2022-10-16T03:04:43;95376.50;;;7.01;100.00
11099;BME280;12223;42.650;23.364;2022-10-16T03:07:10;95365.25;;;6.93;100.00
11099;BME280;12223;42.650;23.364;2022-10-16T03:09:37;95361.97;;;6.46;100.00
11099;BME280;12223;42.650;23.364;2022-10-16T03:12:04;95340.16;;;6.17;100.00
11099;BME280;12223;42.650;23.364;2022-10-16T03:14:31;95327.06;;;6.31;100.00
11099;BME280;12223;42.650;23.364;2022-10-16T03:16:58;95303.53;;;6.53;100.00
11099;BME280;12223;42.650;23.364;2022-10-16T03:19:25;95338.00;;;6.64;100.00
11099;BME280;12223;42.650;23.364;2022-10-16T03:21:53;95354.97;;;6.76;100.00
11099;BME280;12223;42.650;23.364;2022-10-16T03:24:20;95366.09;;;6.64;100.00
11099;BME280;12223;42.650;23.364;2022-10-16T03:26:47;95381.50;;;6.29;100.00
11099;BME280;12223;42.650;23.364;2022-10-16T03:29:15;95356.25;;;6.28;100.00
11099;BME280;12223;42.650;23.364;2022-10-16T03:31:42;95347.34;;;6.37;100.00
11099;BME280;12223;42.650;23.364;2022-10-16T03:34:09;95341.50;;;6.13;100.00
11099;BME280;12223;42.650;23.364;2022-10-16T03:36:36;95332.47;;;6.30;100.00
11099;BME280;12223;42.650;23.364;2022-10-16T03:39:04;95334.00;;;6.39;100.00
11099;BME280;12223;42.650;23.364;2022-10-16T03:41:31;95347.31;;;6.52;100.00
11099;BME280;12223;42.650;23.364;2022-10-16T03:43:58;95352.31;;;6.62;100.00
11099;BME280;12223;42.650;23.364;2022-10-16T03:46:25;95359.91;;;6.71;100.00
11099;BME280;12223;42.650;23.364;2022-10-16T03:48:52;95360.63;;;6.65;100.00
11099;BME280;12223;42.650;23.364;2022-10-16T03:51:19;95357.84;;;6.67;100.00
11099;BME280;12223;42.650;23.364;2022-10-16T03:53:46;95362.75;;;6.70;100.00
11099;BME280;12223;42.650;23.364;2022-10-16T03:56:14;95351.06;;;6.72;100.00
11099;BME280;12223;42.650;23.364;2022-10-16T03:58:41;95360.63;;;6.65;100.00
11099;BME280;12223;42.650;23.364;2022-10-16T04:01:08;95345.88;;;6.35;100.00
11099;BME280;12223;42.650;23.364;2022-10-16T04:03:35;95359.25;;;6.40;100.00
11099;BME280;12223;42.650;23.364;2022-10-16T04:06:02;95349.38;;;6.27;100.00
11099;BME280;12223;42.650;23.364;2022-10-16T04:08:29;95360.16;;;6.32;100.00
11099;BME280;12223;42.650;23.364;2022-10-16T04:10:56;95367.13;;;6.40;100.00
11099;BME280;12223;42.650;23.364;2022-10-16T04:13:24;95357.34;;;6.34;100.00
11099;BME280;12223;42.650;23.364;2022-10-16T04:15:51;95370.13;;;6.37;100.00
11099;BME280;12223;42.650;23.364;2022-10-16T04:18:18;95370.94;;;6.37;100.00
11099;BME280;12223;42.650;23.364;2022-10-16T04:20:45;95371.38;;;6.41;100.00
11099;BME280;12223;42.650;23.364;2022-10-16T04:23:12;95377.06;;;6.30;100.00
11099;BME280;12223;42.650;23.364;2022-10-16T04:25:39;95339.59;;;6.07;100.00
11099;BME280;12223;42.650;23.364;2022-10-16T04:28:06;95383.16;;;6.45;100.00
11099;BME280;12223;42.650;23.364;2022-10-16T04:30:34;95368.75;;;6.41;100.00
11099;BME280;12223;42.650;23.364;2022-10-16T04:33:01;95385.34;;;6.56;100.00
11099;BME280;12223;42.650;23.364;2022-10-16T04:35:29;95385.44;;;6.48;100.00
11099;BME280;12223;42.650;23.364;2022-10-16T04:37:57;95388.94;;;6.40;100.00
11099;BME280;12223;42.650;23.364;2022-10-16T04:40:24;95391.56;;;6.40;100.00
11099;BME280;12223;42.650;23.364;2022-10-16T04:42:51;95393.63;;;6.45;100.00
11099;BME280;12223;42.650;23.364;2022-10-16T04:45:19;95392.53;;;6.39;100.00
11099;BME280;12223;42.650;23.364;2022-10-16T04:47:47;95395.00;;;6.41;100.00
11099;BME280;12223;42.650;23.364;2022-10-16T04:50:15;95391.66;;;6.47;100.00
11099;BME280;12223;42.650;23.364;2022-10-16T04:52:42;95395.19;;;6.54;100.00
11099;BME280;12223;42.650;23.364;2022-10-16T04:55:09;95395.44;;;6.30;100.00
11099;BME280;12223;42.650;23.364;2022-10-16T04:57:35;95395.56;;;6.51;100.00
11099;BME280;12223;42.650;23.364;2022-10-16T05:00:03;95405.09;;;6.67;100.00
11099;BME280;12223;42.650;23.364;2022-10-16T05:02:30;95411.63;;;7.00;100.00
11099;BME280;12223;42.650;23.364;2022-10-16T05:05:03;95456.88;;;8.18;100.00
11099;BME280;12223;42.650;23.364;2022-10-16T05:07:31;95475.75;;;9.20;100.00
11099;BME280;12223;42.650;23.364;2022-10-16T05:09:57;95497.00;;;10.48;100.00
11099;BME280;12223;42.650;23.364;2022-10-16T05:12:24;95497.78;;;11.54;100.00
11099;BME280;12223;42.650;23.364;2022-10-16T05:14:51;95487.63;;;12.46;100.00
11099;BME280;12223;42.650;23.364;2022-10-16T05:17:18;95504.72;;;13.56;85.38
11099;BME280;12223;42.650;23.364;2022-10-16T05:19:46;95517.66;;;14.56;74.76
11099;BME280;12223;42.650;23.364;2022-10-16T05:22:14;95514.28;;;15.66;67.56
11099;BME280;12223;42.650;23.364;2022-10-16T05:24:43;95500.47;;;16.73;61.10
11099;BME280;12223;42.650;23.364;2022-10-16T05:27:10;95520.09;;;17.79;56.60
11099;BME280;12223;42.650;23.364;2022-10-16T05:29:44;95519.50;;;18.80;50.21
11099;BME280;12223;42.650;23.364;2022-10-16T05:32:11;95495.50;;;19.54;46.91
11099;BME280;12223;42.650;23.364;2022-10-16T05:34:38;95499.22;;;20.37;44.32
11099;BME280;12223;42.650;23.364;2022-10-16T05:37:05;95501.59;;;21.37;42.25
11099;BME280;12223;42.650;23.364;2022-10-16T05:39:34;95511.94;;;22.29;38.97
11099;BME280;12223;42.650;23.364;2022-10-16T05:42:02;95522.66;;;23.04;37.17
11099;BME280;12223;42.650;23.364;2022-10-16T05:44:35;95520.19;;;23.46;35.52
11099;BME280;12223;42.650;23.364;2022-10-16T05:47:03;95514.50;;;24.39;33.97
11099;BME280;12223;42.650;23.364;2022-10-16T05:49:32;95524.09;;;25.31;33.16
11099;BME280;12223;42.650;23.364;2022-10-16T05:52:04;95512.41;;;26.00;31.36
11099;BME280;12223;42.650;23.364;2022-10-16T05:54:33;95527.44;;;26.52;30.57
11099;BME280;12223;42.650;23.364;2022-10-16T05:57:02;95538.16;;;26.85;29.67
11099;BME280;12223;42.650;23.364;2022-10-16T05:59:31;95542.88;;;27.42;28.68
11099;BME280;12223;42.650;23.364;2022-10-16T06:01:58;95540.06;;;27.92;27.93
11099;BME280;12223;42.650;23.364;2022-10-16T06:04:24;95541.84;;;28.50;26.85
11099;BME280;12223;42.650;23.364;2022-10-16T06:06:52;95549.03;;;28.94;26.37
11099;BME280;12223;42.650;23.364;2022-10-16T06:09:19;95550.03;;;29.24;25.58
11099;BME280;12223;42.650;23.364;2022-10-16T06:11:47;95553.94;;;29.48;25.72
11099;BME280;12223;42.650;23.364;2022-10-16T06:14:14;95557.09;;;29.25;25.31
11099;BME280;12223;42.650;23.364;2022-10-16T06:16:41;95550.66;;;28.24;26.24
11099;BME280;12223;42.650;23.364;2022-10-16T06:19:07;95572.59;;;28.06;26.97
11099;BME280;12223;42.650;23.364;2022-10-16T06:21:35;95557.38;;;28.58;26.35
11099;BME280;12223;42.650;23.364;2022-10-16T06:24:01;95503.63;;;28.55;25.97
11099;BME280;12223;42.650;23.364;2022-10-16T06:26:29;95570.41;;;28.78;25.56
11099;BME280;12223;42.650;23.364;2022-10-16T06:28:59;95575.63;;;28.66;26.04
11099;BME280;12223;42.650;23.364;2022-10-16T06:31:26;95585.25;;;27.88;26.39
11099;BME280;12223;42.650;23.364;2022-10-16T06:33:56;95574.69;;;26.46;27.88
11099;BME280;12223;42.650;23.364;2022-10-16T06:36:23;95574.66;;;25.68;29.99
11099;BME280;12223;42.650;23.364;2022-10-16T06:38:51;95579.31;;;27.00;28.16
11099;BME280;12223;42.650;23.364;2022-10-16T06:41:19;95581.16;;;27.41;27.15
11099;BME280;12223;42.650;23.364;2022-10-16T06:43:48;95585.25;;;27.02;27.67
11099;BME280;12223;42.650;23.364;2022-10-16T06:46:18;95585.97;;;26.21;29.10
11099;BME280;12223;42.650;23.364;2022-10-16T06:48:52;95589.00;;;25.68;29.09
11099;BME280;12223;42.650;23.364;2022-10-16T06:51:21;95594.50;;;23.68;32.12
11099;BME280;12223;42.650;23.364;2022-10-16T06:53:49;95588.41;;;22.18;34.55
11099;BME280;12223;42.650;23.364;2022-10-16T06:56:20;95598.16;;;20.81;37.02
11099;BME280;12223;42.650;23.364;2022-10-16T06:58:48;95606.53;;;20.00;39.32
11099;BME280;12223;42.650;23.364;2022-10-16T07:01:18;95609.97;;;19.32;41.39
11099;BME280;12223;42.650;23.364;2022-10-16T07:03:46;95605.75;;;18.66;43.28
11099;BME280;12223;42.650;23.364;2022-10-16T07:06:15;95604.06;;;18.21;45.04
11099;BME280;12223;42.650;23.364;2022-10-16T07:08:44;95605.09;;;17.65;46.36
11099;BME280;12223;42.650;23.364;2022-10-16T07:11:12;95608.53;;;17.32;47.92
11099;BME280;12223;42.650;23.364;2022-10-16T07:13:41;95613.06;;;17.03;49.80
11099;BME280;12223;42.650;23.364;2022-10-16T07:16:11;95604.31;;;16.91;51.30
11099;BME280;12223;42.650;23.364;2022-10-16T07:18:40;95613.47;;;16.32;52.93
11099;BME280;12223;42.650;23.364;2022-10-16T07:21:09;95619.66;;;15.74;56.41
11099;BME280;12223;42.650;23.364;2022-10-16T07:23:37;95625.06;;;14.84;61.02
11099;BME280;12223;42.650;23.364;2022-10-16T07:26:05;95621.41;;;14.49;67.34
11099;BME280;12223;42.650;23.364;2022-10-16T07:28:32;95616.47;;;13.91;71.42
11099;BME280;12223;42.650;23.364;2022-10-16T07:31:12;95620.34;;;14.14;72.28
11099;BME280;12223;42.650;23.364;2022-10-16T07:33:42;95627.09;;;14.34;71.90
11099;BME280;12223;42.650;23.364;2022-10-16T07:36:11;95609.38;;;14.28;71.83
11099;BME280;12223;42.650;23.364;2022-10-16T07:38:38;95617.41;;;14.03;74.33
11099;BME280;12223;42.650;23.364;2022-10-16T07:41:06;95619.31;;;14.15;76.50
11099;BME280;12223;42.650;23.364;2022-10-16T07:43:33;95621.28;;;14.01;80.10
11099;BME280;12223;42.650;23.364;2022-10-16T07:46:00;95625.13;;;14.23;78.37
11099;BME280;12223;42.650;23.364;2022-10-16T07:48:28;95625.66;;;14.32;77.36
11099;BME280;12223;42.650;23.364;2022-10-16T07:50:58;95621.00;;;14.82;72.87
11099;BME280;12223;42.650;23.364;2022-10-16T07:53:25;95623.78;;;14.87;71.44
11099;BME280;12223;42.650;23.364;2022-10-16T07:55:57;95623.34;;;14.90;70.64
11099;BME280;12223;42.650;23.364;2022-10-16T07:58:25;95623.09;;;15.10;67.13
11099;BME280;12223;42.650;23.364;2022-10-16T08:00:51;95629.06;;;15.05;68.73
11099;BME280;12223;42.650;23.364;2022-10-16T08:03:18;95629.38;;;15.27;66.59
11099;BME280;12223;42.650;23.364;2022-10-16T08:05:45;95628.72;;;15.43;66.48
11099;BME280;12223;42.650;23.364;2022-10-16T08:08:15;95632.44;;;15.12;65.27
11099;BME280;12223;42.650;23.364;2022-10-16T08:10:42;95633.31;;;14.95;68.13
11099;BME280;12223;42.650;23.364;2022-10-16T08:13:09;95636.00;;;14.76;67.81
11099;BME280;12223;42.650;23.364;2022-10-16T08:15:36;95628.63;;;14.78;69.39
11099;BME280;12223;42.650;23.364;2022-10-16T08:18:04;95618.97;;;14.96;69.89
11099;BME280;12223;42.650;23.364;2022-10-16T08:20:34;95622.06;;;15.11;68.86
11099;BME280;12223;42.650;23.364;2022-10-16T08:23:01;95623.34;;;15.32;66.47
11099;BME280;12223;42.650;23.364;2022-10-16T08:25:29;95632.88;;;14.98;67.48
11099;BME280;12223;42.650;23.364;2022-10-16T08:27:56;95630.56;;;14.71;69.64
11099;BME280;12223;42.650;23.364;2022-10-16T08:30:24;95627.19;;;14.46;70.60
11099;BME280;12223;42.650;23.364;2022-10-16T08:32:51;95619.69;;;14.36;72.68
11099;BME280;12223;42.650;23.364;2022-10-16T08:35:17;95619.19;;;14.46;71.36
11099;BME280;12223;42.650;23.364;2022-10-16T08:37:44;95620.66;;;14.42;71.45
11099;BME280;12223;42.650;23.364;2022-10-16T08:40:16;95625.53;;;14.63;71.13
11099;BME280;12223;42.650;23.364;2022-10-16T08:42:56;95628.66;;;14.60;68.10
11099;BME280;12223;42.650;23.364;2022-10-16T08:45:49;95623.34;;;14.60;69.57
11099;BME280;12223;42.650;23.364;2022-10-16T08:48:26;95617.94;;;14.48;65.59
11099;BME280;12223;42.650;23.364;2022-10-16T08:50:56;95594.81;;;14.13;65.48
11099;BME280;12223;42.650;23.364;2022-10-16T08:53:28;95622.78;;;14.33;66.12
11099;BME280;12223;42.650;23.364;2022-10-16T08:55:56;95622.28;;;14.61;63.61
11099;BME280;12223;42.650;23.364;2022-10-16T08:58:28;95627.38;;;14.93;60.26
11099;BME280;12223;42.650;23.364;2022-10-16T09:00:57;95632.84;;;15.27;57.06
11099;BME280;12223;42.650;23.364;2022-10-16T09:03:41;95623.63;;;15.42;56.83
11099;BME280;12223;42.650;23.364;2022-10-16T09:06:20;95625.34;;;15.78;56.00
11099;BME280;12223;42.650;23.364;2022-10-16T09:09:01;95620.81;;;15.66;56.90
11099;BME280;12223;42.650;23.364;2022-10-16T09:11:39;95620.53;;;15.56;55.73
11099;BME280;12223;42.650;23.364;2022-10-16T09:14:31;95625.00;;;15.44;53.02
11099;BME280;12223;42.650;23.364;2022-10-16T09:17:12;95608.22;;;15.44;52.48
11099;BME280;12223;42.650;23.364;2022-10-16T09:19:45;95627.97;;;15.54;50.70
11099;BME280;12223;42.650;23.364;2022-10-16T09:22:16;95615.16;;;15.33;53.10
11099;BME280;12223;42.650;23.364;2022-10-16T09:24:44;95618.22;;;15.18;52.95
11099;BME280;12223;42.650;23.364;2022-10-16T09:27:12;95626.31;;;15.12;54.34
11099;BME280;12223;42.650;23.364;2022-10-16T09:29:42;95621.59;;;15.25;53.25
11099;BME280;12223;42.650;23.364;2022-10-16T09:32:12;95624.09;;;15.50;53.56
11099;BME280;12223;42.650;23.364;2022-10-16T09:34:43;95621.78;;;15.42;53.87
11099;BME280;12223;42.650;23.364;2022-10-16T09:37:14;95606.50;;;15.49;53.84
11099;BME280;12223;42.650;23.364;2022-10-16T09:39:47;95619.97;;;15.24;53.72
11099;BME280;12223;42.650;23.364;2022-10-16T09:42:16;95614.06;;;15.52;52.69
11099;BME280;12223;42.650;23.364;2022-10-16T09:44:49;95605.16;;;15.82;51.60
11099;BME280;12223;42.650;23.364;2022-10-16T09:47:19;95607.16;;;16.09;50.63
11099;BME280;12223;42.650;23.364;2022-10-16T09:49:51;95601.34;;;16.13;49.34
11099;BME280;12223;42.650;23.364;2022-10-16T09:52:19;95609.59;;;15.99;50.22
11099;BME280;12223;42.650;23.364;2022-10-16T09:54:50;95601.25;;;15.84;48.37
11099;BME280;12223;42.650;23.364;2022-10-16T09:57:17;95602.06;;;15.85;49.40
11099;BME280;12223;42.650;23.364;2022-10-16T09:59:49;95600.66;;;15.94;49.10
11099;BME280;12223;42.650;23.364;2022-10-16T10:02:18;95581.44;;;16.03;48.40
11099;BME280;12223;42.650;23.364;2022-10-16T10:04:50;95599.81;;;16.28;47.82
11099;BME280;12223;42.650;23.364;2022-10-16T10:07:24;95595.63;;;16.32;47.25
11099;BME280;12223;42.650;23.364;2022-10-16T10:09:52;95593.56;;;16.23;47.63
11099;BME280;12223;42.650;23.364;2022-10-16T10:12:21;95583.47;;;16.36;48.04
11099;BME280;12223;42.650;23.364;2022-10-16T10:14:51;95585.53;;;16.46;47.43
11099;BME280;12223;42.650;23.364;2022-10-16T10:17:20;95587.13;;;16.59;46.64
11099;BME280;12223;42.650;23.364;2022-10-16T10:19:52;95587.16;;;16.47;46.63
11099;BME280;12223;42.650;23.364;2022-10-16T10:22:31;95570.75;;;16.15;47.79
11099;BME280;12223;42.650;23.364;2022-10-16T10:25:22;95590.03;;;16.45;47.84
11099;BME280;12223;42.650;23.364;2022-10-16T10:28:16;95580.09;;;16.41;46.65
11099;BME280;12223;42.650;23.364;2022-10-16T10:30:53;95568.41;;;16.30;46.61
11099;BME280;12223;42.650;23.364;2022-10-16T10:33:28;95576.94;;;16.44;46.36
11099;BME280;12223;42.650;23.364;2022-10-16T10:36:05;95575.28;;;16.66;46.28
11099;BME280;12223;42.650;23.364;2022-10-16T10:38:40;95571.72;;;16.61;45.94
11099;BME280;12223;42.650;23.364;2022-10-16T10:41:40;95570.16;;;16.13;47.04
11099;BME280;12223;42.650;23.364;2022-10-16T10:44:21;95570.16;;;16.13;46.69
11099;BME280;12223;42.650;23.364;2022-10-16T10:46:56;95569.47;;;16.29;46.58
11099;BME280;12223;42.650;23.364;2022-10-16T10:49:47;95538.34;;;16.46;46.33
11099;BME280;12223;42.650;23.364;2022-10-16T10:52:36;95572.16;;;17.14;44.04
11099;BME280;12223;42.650;23.364;2022-10-16T10:55:17;95561.84;;;17.18;42.08
11099;BME280;12223;42.650;23.364;2022-10-16T11:00:58;95558.16;;;17.07;41.56
11099;BME280;12223;42.650;23.364;2022-10-16T11:06:36;95540.63;;;17.11;40.48
11099;BME280;12223;42.650;23.364;2022-10-16T11:09:11;95536.63;;;17.25;39.95
11099;BME280;12223;42.650;23.364;2022-10-16T11:11:43;95535.78;;;17.42;40.23
11099;BME280;12223;42.650;23.364;2022-10-16T11:14:16;95538.44;;;17.58;40.52
11099;BME280;12223;42.650;23.364;2022-10-16T11:16:49;95547.06;;;17.44;37.45
11099;BME280;12223;42.650;23.364;2022-10-16T11:19:25;95535.06;;;17.29;37.26
11099;BME280;12223;42.650;23.364;2022-10-16T11:22:01;95535.66;;;17.32;38.42
11099;BME280;12223;42.650;23.364;2022-10-16T11:24:36;95535.31;;;17.45;37.67
11099;BME280;12223;42.650;23.364;2022-10-16T11:27:09;95538.63;;;17.35;37.98
11099;BME280;12223;42.650;23.364;2022-10-16T11:29:45;95531.91;;;17.33;39.03
11099;BME280;12223;42.650;23.364;2022-10-16T11:32:21;95523.66;;;17.51;38.22
11099;BME280;12223;42.650;23.364;2022-10-16T11:34:52;95526.16;;;17.57;38.00
11099;BME280;12223;42.650;23.364;2022-10-16T11:37:26;95534.97;;;17.41;38.55
11099;BME280;12223;42.650;23.364;2022-10-16T11:40:03;95530.16;;;17.38;38.33
11099;BME280;12223;42.650;23.364;2022-10-16T11:42:41;95533.44;;;17.45;39.15
11099;BME280;12223;42.650;23.364;2022-10-16T11:45:18;95533.63;;;17.39;39.69
11099;BME280;12223;42.650;23.364;2022-10-16T11:47:56;95530.22;;;17.43;39.41
11099;BME280;12223;42.650;23.364;2022-10-16T11:50:31;95528.44;;;17.32;40.25
11099;BME280;12223;42.650;23.364;2022-10-16T11:53:08;95534.34;;;17.51;40.32
11099;BME280;12223;42.650;23.364;2022-10-16T11:55:39;95523.84;;;17.61;40.29
11099;BME280;12223;42.650;23.364;2022-10-16T11:58:09;95526.03;;;17.64;39.86
11099;BME280;12223;42.650;23.364;2022-10-16T12:00:44;95530.06;;;17.66;41.75
11099;BME280;12223;42.650;23.364;2022-10-16T12:03:18;95531.19;;;17.71;41.26
11099;BME280;12223;42.650;23.364;2022-10-16T12:05:55;95531.44;;;17.69;39.64
11099;BME280;12223;42.650;23.364;2022-10-16T12:08:27;95527.34;;;17.83;37.71
11099;BME280;12223;42.650;23.364;2022-10-16T12:11:06;95517.16;;;17.80;38.66
11099;BME280;12223;42.650;23.364;2022-10-16T12:13:34;95529.66;;;17.75;40.01
11099;BME280;12223;42.650;23.364;2022-10-16T12:16:23;95527.34;;;17.83;39.89
11099;BME280;12223;42.650;23.364;2022-10-16T12:19:03;95520.81;;;17.57;40.50
11099;BME280;12223;42.650;23.364;2022-10-16T12:21:36;95524.31;;;17.75;40.56
11099;BME280;12223;42.650;23.364;2022-10-16T12:24:05;95514.03;;;17.66;40.95
11099;BME280;12223;42.650;23.364;2022-10-16T12:26:33;95512.94;;;17.84;40.98
11099;BME280;12223;42.650;23.364;2022-10-16T12:29:14;95525.81;;;17.87;40.59
11099;BME280;12223;42.650;23.364;2022-10-16T12:31:48;95518.56;;;18.04;39.45
11099;BME280;12223;42.650;23.364;2022-10-16T12:34:22;95507.41;;;17.91;38.53
11099;BME280;12223;42.650;23.364;2022-10-16T12:36:50;95534.84;;;18.03;37.81
11099;BME280;12223;42.650;23.364;2022-10-16T12:39:22;95532.63;;;17.95;38.31
11099;BME280;12223;42.650;23.364;2022-10-16T12:42:01;95530.84;;;17.84;39.88
11099;BME280;12223;42.650;23.364;2022-10-16T12:44:32;95517.31;;;17.90;38.99
11099;BME280;12223;42.650;23.364;2022-10-16T12:47:01;95536.47;;;18.04;38.30
11099;BME280;12223;42.650;23.364;2022-10-16T12:49:36;95532.97;;;18.03;39.29
11099;BME280;12223;42.650;23.364;2022-10-16T12:52:04;95530.88;;;18.05;38.93
11099;BME280;12223;42.650;23.364;2022-10-16T12:54:36;95530.38;;;18.08;39.50
11099;BME280;12223;42.650;23.364;2022-10-16T12:57:13;95526.00;;;18.02;40.10
11099;BME280;12223;42.650;23.364;2022-10-16T12:59:52;95532.78;;;17.88;41.03
11099;BME280;12223;42.650;23.364;2022-10-16T13:02:51;95532.16;;;18.03;40.92
11099;BME280;12223;42.650;23.364;2022-10-16T13:08:22;95541.88;;;18.09;39.49
11099;BME280;12223;42.650;23.364;2022-10-16T13:11:03;95539.16;;;18.04;39.91
11099;BME280;12223;42.650;23.364;2022-10-16T13:13:48;95538.03;;;18.22;39.26
11099;BME280;12223;42.650;23.364;2022-10-16T13:16:24;95544.81;;;18.29;39.39
11099;BME280;12223;42.650;23.364;2022-10-16T13:19:01;95540.34;;;18.35;38.09
11099;BME280;12223;42.650;23.364;2022-10-16T13:21:41;95540.34;;;18.35;37.58